sensor_id;sensor_type;location;lat;lon;timestamp;temperature;humidity
65369;HTU21D;51970;53.484;49.488;2022-07-11T00:01:05;20.01;73.87
65369;HTU21D;51970;53.484;49.488;2022-07-11T00:03:31;20.00;73.98
65369;HTU21D;51970;53.484;49.488;2022-07-11T00:05:57;19.97;73.83
65369;HTU21D;51970;53.484;49.488;2022-07-11T00:08:23;20.01;73.95
65369;HTU21D;51970;53.484;49.488;2022-07-11T00:10:49;19.98;74.03
65369;HTU21D;51970;53.484;49.488;2022-07-11T00:13:15;19.97;74.10
65369;HTU21D;51970;53.484;49.488;2022-07-11T00:15:41;19.91;74.22
65369;HTU21D;51970;53.484;49.488;2022-07-11T00:18:07;19.91;74.16
65369;HTU21D;51970;53.484;49.488;2022-07-11T00:20:33;19.94;74.22
65369;HTU21D;51970;53.484;49.488;2022-07-11T00:22:59;19.92;74.18
65369;HTU21D;51970;53.484;49.488;2022-07-11T00:25:25;19.94;74.23
65369;HTU21D;51970;53.484;49.488;2022-07-11T00:27:51;19.89;74.31
65369;HTU21D;51970;53.484;49.488;2022-07-11T00:30:17;19.88;74.43
65369;HTU21D;51970;53.484;49.488;2022-07-11T00:32:43;19.88;74.32
65369;HTU21D;51970;53.484;49.488;2022-07-11T00:35:09;19.87;74.51
65369;HTU21D;51970;53.484;49.488;2022-07-11T00:37:36;19.88;74.39
65369;HTU21D;51970;53.484;49.488;2022-07-11T00:40:03;19.91;74.34
65369;HTU21D;51970;53.484;49.488;2022-07-11T00:42:29;19.95;74.12
65369;HTU21D;51970;53.484;49.488;2022-07-11T00:44:55;19.92;74.18
65369;HTU21D;51970;53.484;49.488;2022-07-11T00:47:21;19.96;74.02
65369;HTU21D;51970;53.484;49.488;2022-07-11T00:49:47;19.96;74.01
65369;HTU21D;51970;53.484;49.488;2022-07-11T00:52:13;19.94;73.96
65369;HTU21D;51970;53.484;49.488;2022-07-11T00:54:39;19.96;73.74
65369;HTU21D;51970;53.484;49.488;2022-07-11T00:57:05;20.00;73.58
65369;HTU21D;51970;53.484;49.488;2022-07-11T00:59:31;20.20;72.82
65369;HTU21D;51970;53.484;49.488;2022-07-11T01:01:58;20.41;72.13
65369;HTU21D;51970;53.484;49.488;2022-07-11T01:04:24;20.66;71.30
65369;HTU21D;51970;53.484;49.488;2022-07-11T01:06:50;20.75;70.69
65369;HTU21D;51970;53.484;49.488;2022-07-11T01:09:16;21.00;70.17
65369;HTU21D;51970;53.484;49.488;2022-07-11T01:11:42;21.91;66.81
65369;HTU21D;51970;53.484;49.488;2022-07-11T01:14:08;22.72;63.91
65369;HTU21D;51970;53.484;49.488;2022-07-11T01:16:34;23.47;61.10
65369;HTU21D;51970;53.484;49.488;2022-07-11T01:19:00;24.03;59.28
65369;HTU21D;51970;53.484;49.488;2022-07-11T01:21:38;24.54;57.67
65369;HTU21D;51970;53.484;49.488;2022-07-11T01:24:05;24.91;56.47
65369;HTU21D;51970;53.484;49.488;2022-07-11T01:26:32;25.19;55.71
65369;HTU21D;51970;53.484;49.488;2022-07-11T01:29:12;25.81;54.33
65369;HTU21D;51970;53.484;49.488;2022-07-11T01:31:40;26.48;52.64
65369;HTU21D;51970;53.484;49.488;2022-07-11T01:34:06;26.92;51.33
65369;HTU21D;51970;53.484;49.488;2022-07-11T01:36:32;27.30;50.18
65369;HTU21D;51970;53.484;49.488;2022-07-11T01:38:58;27.58;49.52
65369;HTU21D;51970;53.484;49.488;2022-07-11T01:41:25;27.82;48.76
65369;HTU21D;51970;53.484;49.488;2022-07-11T01:43:51;27.76;48.59
65369;HTU21D;51970;53.484;49.488;2022-07-11T01:46:18;27.80;48.61
65369;HTU21D;51970;53.484;49.488;2022-07-11T01:48:47;27.79;48.82
65369;HTU21D;51970;53.484;49.488;2022-07-11T01:51:13;27.94;47.96
65369;HTU21D;51970;53.484;49.488;2022-07-11T01:53:39;28.09;47.63
65369;HTU21D;51970;53.484;49.488;2022-07-11T01:56:05;28.57;46.60
65369;HTU21D;51970;53.484;49.488;2022-07-11T01:58:31;28.70;46.17
65369;HTU21D;51970;53.484;49.488;2022-07-11T02:00:58;28.79;45.93
65369;HTU21D;51970;53.484;49.488;2022-07-11T02:03:24;28.90;45.83
65369;HTU21D;51970;53.484;49.488;2022-07-11T02:05:50;28.71;45.86
65369;HTU21D;51970;53.484;49.488;2022-07-11T02:08:16;28.85;45.68
65369;HTU21D;51970;53.484;49.488;2022-07-11T02:10:45;29.29;44.96
65369;HTU21D;51970;53.484;49.488;2022-07-11T02:13:15;29.97;43.11
65369;HTU21D;51970;53.484;49.488;2022-07-11T02:15:42;30.39;42.13
65369;HTU21D;51970;53.484;49.488;2022-07-11T02:18:09;30.75;41.39
65369;HTU21D;51970;53.484;49.488;2022-07-11T02:20:37;31.14;40.35
65369;HTU21D;51970;53.484;49.488;2022-07-11T02:23:03;31.48;40.01
65369;HTU21D;51970;53.484;49.488;2022-07-11T02:25:30;31.74;39.25
65369;HTU21D;51970;53.484;49.488;2022-07-11T02:27:57;31.73;39.14
65369;HTU21D;51970;53.484;49.488;2022-07-11T02:30:24;31.55;39.80
65369;HTU21D;51970;53.484;49.488;2022-07-11T02:32:51;31.65;39.82
65369;HTU21D;51970;53.484;49.488;2022-07-11T02:35:18;32.18;38.27
65369;HTU21D;51970;53.484;49.488;2022-07-11T02:37:44;32.71;37.14
65369;HTU21D;51970;53.484;49.488;2022-07-11T02:40:10;33.09;36.47
65369;HTU21D;51970;53.484;49.488;2022-07-11T02:42:36;33.11;36.39
65369;HTU21D;51970;53.484;49.488;2022-07-11T02:45:03;33.03;36.71
65369;HTU21D;51970;53.484;49.488;2022-07-11T02:47:30;32.92;37.11
65369;HTU21D;51970;53.484;49.488;2022-07-11T02:49:56;33.00;37.17
65369;HTU21D;51970;53.484;49.488;2022-07-11T02:52:22;33.12;36.47
65369;HTU21D;51970;53.484;49.488;2022-07-11T02:54:48;33.67;35.44
65369;HTU21D;51970;53.484;49.488;2022-07-11T02:57:14;33.93;34.70
65369;HTU21D;51970;53.484;49.488;2022-07-11T02:59:40;34.06;34.63
65369;HTU21D;51970;53.484;49.488;2022-07-11T03:02:06;33.83;34.98
65369;HTU21D;51970;53.484;49.488;2022-07-11T03:04:33;34.40;33.96
65369;HTU21D;51970;53.484;49.488;2022-07-11T03:06:59;34.16;34.72
65369;HTU21D;51970;53.484;49.488;2022-07-11T03:09:26;33.85;35.42
65369;HTU21D;51970;53.484;49.488;2022-07-11T03:11:52;34.19;34.72
65369;HTU21D;51970;53.484;49.488;2022-07-11T03:14:18;34.57;33.86
65369;HTU21D;51970;53.484;49.488;2022-07-11T03:16:45;34.83;33.57
65369;HTU21D;51970;53.484;49.488;2022-07-11T03:19:11;34.97;33.33
65369;HTU21D;51970;53.484;49.488;2022-07-11T03:21:37;35.23;32.28
65369;HTU21D;51970;53.484;49.488;2022-07-11T03:24:03;35.43;31.94
65369;HTU21D;51970;53.484;49.488;2022-07-11T03:26:29;35.22;32.31
65369;HTU21D;51970;53.484;49.488;2022-07-11T03:28:55;35.00;32.96
65369;HTU21D;51970;53.484;49.488;2022-07-11T03:31:21;34.76;33.33
65369;HTU21D;51970;53.484;49.488;2022-07-11T03:33:47;34.25;34.49
65369;HTU21D;51970;53.484;49.488;2022-07-11T03:36:13;34.57;33.74
65369;HTU21D;51970;53.484;49.488;2022-07-11T03:38:39;34.71;33.70
65369;HTU21D;51970;53.484;49.488;2022-07-11T03:41:05;34.25;33.98
65369;HTU21D;51970;53.484;49.488;2022-07-11T03:43:31;34.81;33.47
65369;HTU21D;51970;53.484;49.488;2022-07-11T03:45:58;33.97;34.73
65369;HTU21D;51970;53.484;49.488;2022-07-11T03:48:24;31.68;39.52
65369;HTU21D;51970;53.484;49.488;2022-07-11T03:50:50;29.53;44.87
65369;HTU21D;51970;53.484;49.488;2022-07-11T03:53:16;28.27;48.31
65369;HTU21D;51970;53.484;49.488;2022-07-11T03:55:42;27.57;50.02
65369;HTU21D;51970;53.484;49.488;2022-07-11T03:58:09;27.36;50.78
65369;HTU21D;51970;53.484;49.488;2022-07-11T04:00:35;26.99;52.20
65369;HTU21D;51970;53.484;49.488;2022-07-11T04:03:02;26.90;52.01
65369;HTU21D;51970;53.484;49.488;2022-07-11T04:05:28;26.79;52.54
65369;HTU21D;51970;53.484;49.488;2022-07-11T04:07:54;26.86;52.14
65369;HTU21D;51970;53.484;49.488;2022-07-11T04:10:22;26.73;52.14
65369;HTU21D;51970;53.484;49.488;2022-07-11T04:12:47;26.97;52.10
65369;HTU21D;51970;53.484;49.488;2022-07-11T04:15:13;27.11;50.96
65369;HTU21D;51970;53.484;49.488;2022-07-11T04:17:40;27.23;51.46
65369;HTU21D;51970;53.484;49.488;2022-07-11T04:20:07;27.55;50.35
65369;HTU21D;51970;53.484;49.488;2022-07-11T04:22:34;27.87;50.02
65369;HTU21D;51970;53.484;49.488;2022-07-11T04:25:00;27.65;50.08
65369;HTU21D;51970;53.484;49.488;2022-07-11T04:27:26;27.84;49.98
65369;HTU21D;51970;53.484;49.488;2022-07-11T04:29:52;27.94;50.14
65369;HTU21D;51970;53.484;49.488;2022-07-11T04:32:19;27.94;50.35
65369;HTU21D;51970;53.484;49.488;2022-07-11T04:34:45;28.02;50.06
65369;HTU21D;51970;53.484;49.488;2022-07-11T04:37:13;28.12;49.75
65369;HTU21D;51970;53.484;49.488;2022-07-11T04:39:40;28.25;49.67
65369;HTU21D;51970;53.484;49.488;2022-07-11T04:42:06;28.32;49.48
65369;HTU21D;51970;53.484;49.488;2022-07-11T04:44:33;28.48;49.27
65369;HTU21D;51970;53.484;49.488;2022-07-11T04:47:04;28.58;48.70
65369;HTU21D;51970;53.484;49.488;2022-07-11T04:49:30;28.64;49.21
65369;HTU21D;51970;53.484;49.488;2022-07-11T04:52:00;28.73;48.74
65369;HTU21D;51970;53.484;49.488;2022-07-11T04:54:26;28.72;48.72
65369;HTU21D;51970;53.484;49.488;2022-07-11T04:56:53;28.68;48.66
65369;HTU21D;51970;53.484;49.488;2022-07-11T04:59:24;28.58;49.18
65369;HTU21D;51970;53.484;49.488;2022-07-11T05:01:52;28.67;48.95
65369;HTU21D;51970;53.484;49.488;2022-07-11T05:04:18;28.91;48.38
65369;HTU21D;51970;53.484;49.488;2022-07-11T05:06:44;29.19;48.81
65369;HTU21D;51970;53.484;49.488;2022-07-11T05:09:11;29.39;47.94
65369;HTU21D;51970;53.484;49.488;2022-07-11T05:11:37;29.54;48.00
65369;HTU21D;51970;53.484;49.488;2022-07-11T05:14:03;29.67;47.99
65369;HTU21D;51970;53.484;49.488;2022-07-11T05:16:30;29.93;47.09
65369;HTU21D;51970;53.484;49.488;2022-07-11T05:18:57;30.08;46.41
65369;HTU21D;51970;53.484;49.488;2022-07-11T05:21:24;30.01;47.01
65369;HTU21D;51970;53.484;49.488;2022-07-11T05:23:50;29.88;47.52
65369;HTU21D;51970;53.484;49.488;2022-07-11T05:26:17;29.68;47.83
65369;HTU21D;51970;53.484;49.488;2022-07-11T05:28:46;29.68;48.20
65369;HTU21D;51970;53.484;49.488;2022-07-11T05:31:12;29.68;47.81
65369;HTU21D;51970;53.484;49.488;2022-07-11T05:33:40;29.83;47.30
65369;HTU21D;51970;53.484;49.488;2022-07-11T05:36:08;29.76;47.22
65369;HTU21D;51970;53.484;49.488;2022-07-11T05:38:36;29.75;47.36
65369;HTU21D;51970;53.484;49.488;2022-07-11T05:41:04;29.64;47.00
65369;HTU21D;51970;53.484;49.488;2022-07-11T05:43:34;29.56;47.46
65369;HTU21D;51970;53.484;49.488;2022-07-11T05:46:06;29.62;46.74
65369;HTU21D;51970;53.484;49.488;2022-07-11T05:48:32;29.62;47.06
65369;HTU21D;51970;53.484;49.488;2022-07-11T05:51:00;29.71;46.44
65369;HTU21D;51970;53.484;49.488;2022-07-11T05:54:11;29.79;45.96
65369;HTU21D;51970;53.484;49.488;2022-07-11T05:56:45;29.85;45.35
65369;HTU21D;51970;53.484;49.488;2022-07-11T05:59:13;29.88;45.35
65369;HTU21D;51970;53.484;49.488;2022-07-11T06:01:50;29.78;45.71
65369;HTU21D;51970;53.484;49.488;2022-07-11T06:04:17;29.90;45.29
65369;HTU21D;51970;53.484;49.488;2022-07-11T06:06:46;29.90;45.43
65369;HTU21D;51970;53.484;49.488;2022-07-11T06:09:12;30.02;45.48
65369;HTU21D;51970;53.484;49.488;2022-07-11T06:11:39;30.24;44.59
65369;HTU21D;51970;53.484;49.488;2022-07-11T06:14:05;30.60;41.23
65369;HTU21D;51970;53.484;49.488;2022-07-11T06:16:32;30.94;39.52
65369;HTU21D;51970;53.484;49.488;2022-07-11T06:18:58;31.24;37.47
65369;HTU21D;51970;53.484;49.488;2022-07-11T06:21:25;31.27;37.02
65369;HTU21D;51970;53.484;49.488;2022-07-11T06:23:52;30.99;37.39
65369;HTU21D;51970;53.484;49.488;2022-07-11T06:26:18;31.10;37.50
65369;HTU21D;51970;53.484;49.488;2022-07-11T06:28:44;31.35;35.93
65369;HTU21D;51970;53.484;49.488;2022-07-11T06:31:11;31.56;36.35
65369;HTU21D;51970;53.484;49.488;2022-07-11T06:33:40;31.69;36.30
65369;HTU21D;51970;53.484;49.488;2022-07-11T06:36:06;31.53;35.62
65369;HTU21D;51970;53.484;49.488;2022-07-11T06:38:33;31.57;36.18
65369;HTU21D;51970;53.484;49.488;2022-07-11T06:40:59;31.69;35.55
65369;HTU21D;51970;53.484;49.488;2022-07-11T06:43:25;31.53;35.32
65369;HTU21D;51970;53.484;49.488;2022-07-11T06:45:54;31.70;35.31
65369;HTU21D;51970;53.484;49.488;2022-07-11T06:48:21;31.92;35.38
65369;HTU21D;51970;53.484;49.488;2022-07-11T06:50:47;31.92;34.73
65369;HTU21D;51970;53.484;49.488;2022-07-11T06:53:14;31.97;33.95
65369;HTU21D;51970;53.484;49.488;2022-07-11T06:55:40;32.07;34.62
65369;HTU21D;51970;53.484;49.488;2022-07-11T06:58:07;31.99;33.15
65369;HTU21D;51970;53.484;49.488;2022-07-11T07:00:34;31.96;34.24
65369;HTU21D;51970;53.484;49.488;2022-07-11T07:03:00;32.19;33.98
65369;HTU21D;51970;53.484;49.488;2022-07-11T07:05:27;31.85;33.29
65369;HTU21D;51970;53.484;49.488;2022-07-11T07:07:53;31.57;33.76
65369;HTU21D;51970;53.484;49.488;2022-07-11T07:10:21;31.54;34.85
65369;HTU21D;51970;53.484;49.488;2022-07-11T07:12:47;31.36;34.73
65369;HTU21D;51970;53.484;49.488;2022-07-11T07:15:13;31.54;34.43
65369;HTU21D;51970;53.484;49.488;2022-07-11T07:17:39;31.86;33.79
65369;HTU21D;51970;53.484;49.488;2022-07-11T07:20:06;31.90;34.06
65369;HTU21D;51970;53.484;49.488;2022-07-11T07:22:35;32.16;33.18
65369;HTU21D;51970;53.484;49.488;2022-07-11T07:25:02;32.19;32.83
65369;HTU21D;51970;53.484;49.488;2022-07-11T07:27:28;31.99;33.27
65369;HTU21D;51970;53.484;49.488;2022-07-11T07:29:55;32.11;33.28
65369;HTU21D;51970;53.484;49.488;2022-07-11T07:32:21;32.42;32.34
65369;HTU21D;51970;53.484;49.488;2022-07-11T07:34:49;32.64;32.11
65369;HTU21D;51970;53.484;49.488;2022-07-11T07:37:15;32.74;31.70
65369;HTU21D;51970;53.484;49.488;2022-07-11T07:39:42;33.01;31.55
65369;HTU21D;51970;53.484;49.488;2022-07-11T07:42:09;33.02;30.68
65369;HTU21D;51970;53.484;49.488;2022-07-11T07:44:40;33.00;30.44
65369;HTU21D;51970;53.484;49.488;2022-07-11T07:47:09;32.89;30.32
65369;HTU21D;51970;53.484;49.488;2022-07-11T07:49:35;32.90;30.19
65369;HTU21D;51970;53.484;49.488;2022-07-11T07:52:01;32.88;29.24
65369;HTU21D;51970;53.484;49.488;2022-07-11T07:54:28;32.63;29.93
65369;HTU21D;51970;53.484;49.488;2022-07-11T07:56:55;32.93;29.07
65369;HTU21D;51970;53.484;49.488;2022-07-11T07:59:23;33.11;29.90
65369;HTU21D;51970;53.484;49.488;2022-07-11T08:01:53;33.27;27.24
65369;HTU21D;51970;53.484;49.488;2022-07-11T08:04:19;33.37;27.83
65369;HTU21D;51970;53.484;49.488;2022-07-11T08:06:45;33.45;25.56
65369;HTU21D;51970;53.484;49.488;2022-07-11T08:09:11;33.40;24.48
65369;HTU21D;51970;53.484;49.488;2022-07-11T08:11:38;33.38;25.14
65369;HTU21D;51970;53.484;49.488;2022-07-11T08:14:05;33.21;25.04
65369;HTU21D;51970;53.484;49.488;2022-07-11T08:16:34;32.72;26.21
65369;HTU21D;51970;53.484;49.488;2022-07-11T08:19:02;32.69;27.88
65369;HTU21D;51970;53.484;49.488;2022-07-11T08:21:31;33.05;28.07
65369;HTU21D;51970;53.484;49.488;2022-07-11T08:23:59;33.15;28.07
65369;HTU21D;51970;53.484;49.488;2022-07-11T08:26:25;33.19;27.65
65369;HTU21D;51970;53.484;49.488;2022-07-11T08:28:53;33.26;28.82
65369;HTU21D;51970;53.484;49.488;2022-07-11T08:31:19;33.30;29.45
65369;HTU21D;51970;53.484;49.488;2022-07-11T08:33:45;33.60;29.62
65369;HTU21D;51970;53.484;49.488;2022-07-11T08:36:12;33.72;30.01
65369;HTU21D;51970;53.484;49.488;2022-07-11T08:38:38;33.62;30.00
65369;HTU21D;51970;53.484;49.488;2022-07-11T08:41:06;33.57;30.62
65369;HTU21D;51970;53.484;49.488;2022-07-11T08:43:32;33.74;29.72
65369;HTU21D;51970;53.484;49.488;2022-07-11T08:45:59;33.44;30.22
65369;HTU21D;51970;53.484;49.488;2022-07-11T08:48:26;33.47;30.80
65369;HTU21D;51970;53.484;49.488;2022-07-11T08:50:54;33.78;30.50
65369;HTU21D;51970;53.484;49.488;2022-07-11T08:53:21;33.91;30.61
65369;HTU21D;51970;53.484;49.488;2022-07-11T08:55:47;33.89;29.13
65369;HTU21D;51970;53.484;49.488;2022-07-11T08:58:14;33.94;29.35
65369;HTU21D;51970;53.484;49.488;2022-07-11T09:00:42;33.90;29.74
65369;HTU21D;51970;53.484;49.488;2022-07-11T09:03:14;33.89;28.97
65369;HTU21D;51970;53.484;49.488;2022-07-11T09:05:40;33.48;29.93
65369;HTU21D;51970;53.484;49.488;2022-07-11T09:08:06;33.81;29.73
65369;HTU21D;51970;53.484;49.488;2022-07-11T09:10:32;34.08;28.03
65369;HTU21D;51970;53.484;49.488;2022-07-11T09:13:09;34.21;28.13
65369;HTU21D;51970;53.484;49.488;2022-07-11T09:15:43;34.15;28.65
65369;HTU21D;51970;53.484;49.488;2022-07-11T09:20:57;34.54;27.47
65369;HTU21D;51970;53.484;49.488;2022-07-11T09:23:43;34.11;28.03
65369;HTU21D;51970;53.484;49.488;2022-07-11T09:26:38;33.79;29.35
65369;HTU21D;51970;53.484;49.488;2022-07-11T09:29:13;33.82;28.81
65369;HTU21D;51970;53.484;49.488;2022-07-11T09:31:41;33.87;28.68
65369;HTU21D;51970;53.484;49.488;2022-07-11T09:34:10;34.17;28.91
65369;HTU21D;51970;53.484;49.488;2022-07-11T09:36:50;34.32;27.45
65369;HTU21D;51970;53.484;49.488;2022-07-11T09:39:19;34.52;27.05
65369;HTU21D;51970;53.484;49.488;2022-07-11T09:41:47;34.66;26.38
65369;HTU21D;51970;53.484;49.488;2022-07-11T09:44:18;34.71;26.27
65369;HTU21D;51970;53.484;49.488;2022-07-11T09:46:47;34.77;26.46
65369;HTU21D;51970;53.484;49.488;2022-07-11T09:49:14;34.69;26.91
65369;HTU21D;51970;53.484;49.488;2022-07-11T09:51:42;34.53;27.65
65369;HTU21D;51970;53.484;49.488;2022-07-11T09:54:09;34.81;26.02
65369;HTU21D;51970;53.484;49.488;2022-07-11T09:56:41;34.85;26.33
65369;HTU21D;51970;53.484;49.488;2022-07-11T09:59:10;34.89;25.94
65369;HTU21D;51970;53.484;49.488;2022-07-11T10:01:37;34.85;26.23
65369;HTU21D;51970;53.484;49.488;2022-07-11T10:04:08;34.68;25.26
65369;HTU21D;51970;53.484;49.488;2022-07-11T10:06:35;34.78;24.49
65369;HTU21D;51970;53.484;49.488;2022-07-11T10:09:03;34.79;24.65
65369;HTU21D;51970;53.484;49.488;2022-07-11T10:11:31;34.79;25.27
65369;HTU21D;51970;53.484;49.488;2022-07-11T10:14:03;34.46;25.35
65369;HTU21D;51970;53.484;49.488;2022-07-11T10:16:46;34.11;25.55
65369;HTU21D;51970;53.484;49.488;2022-07-11T10:19:36;33.47;26.55
65369;HTU21D;51970;53.484;49.488;2022-07-11T10:25:00;33.81;27.00
65369;HTU21D;51970;53.484;49.488;2022-07-11T10:27:42;34.21;26.72
65369;HTU21D;51970;53.484;49.488;2022-07-11T10:30:13;34.10;26.75
65369;HTU21D;51970;53.484;49.488;2022-07-11T10:32:58;34.15;26.72
65369;HTU21D;51970;53.484;49.488;2022-07-11T10:35:29;34.12;26.17
65369;HTU21D;51970;53.484;49.488;2022-07-11T10:37:55;33.53;27.09
65369;HTU21D;51970;53.484;49.488;2022-07-11T10:40:47;33.59;27.68
65369;HTU21D;51970;53.484;49.488;2022-07-11T10:46:10;33.85;26.62
65369;HTU21D;51970;53.484;49.488;2022-07-11T10:49:01;33.81;27.43
65369;HTU21D;51970;53.484;49.488;2022-07-11T10:51:38;33.99;26.39
65369;HTU21D;51970;53.484;49.488;2022-07-11T10:54:37;33.97;26.55
65369;HTU21D;51970;53.484;49.488;2022-07-11T10:57:22;34.29;26.34
65369;HTU21D;51970;53.484;49.488;2022-07-11T11:02:24;34.50;25.98
65369;HTU21D;51970;53.484;49.488;2022-07-11T11:07:39;34.08;26.22
65369;HTU21D;51970;53.484;49.488;2022-07-11T11:15:49;34.27;26.26
65369;HTU21D;51970;53.484;49.488;2022-07-11T11:23:42;34.18;26.66
65369;HTU21D;51970;53.484;49.488;2022-07-11T11:26:18;34.40;26.88
65369;HTU21D;51970;53.484;49.488;2022-07-11T11:29:08;34.56;25.74
65369;HTU21D;51970;53.484;49.488;2022-07-11T11:31:36;34.68;25.92
65369;HTU21D;51970;53.484;49.488;2022-07-11T11:34:03;34.88;25.51
65369;HTU21D;51970;53.484;49.488;2022-07-11T11:36:33;35.09;25.27
65369;HTU21D;51970;53.484;49.488;2022-07-11T11:39:01;34.88;25.49
65369;HTU21D;51970;53.484;49.488;2022-07-11T11:41:29;34.57;25.23
65369;HTU21D;51970;53.484;49.488;2022-07-11T11:43:57;34.31;26.14
65369;HTU21D;51970;53.484;49.488;2022-07-11T11:46:40;34.44;26.41
65369;HTU21D;51970;53.484;49.488;2022-07-11T11:49:06;34.66;25.25
65369;HTU21D;51970;53.484;49.488;2022-07-11T11:51:32;34.76;24.85
65369;HTU21D;51970;53.484;49.488;2022-07-11T11:54:02;34.79;25.79
65369;HTU21D;51970;53.484;49.488;2022-07-11T11:56:33;34.93;25.00
65369;HTU21D;51970;53.484;49.488;2022-07-11T11:59:08;34.79;25.14
65369;HTU21D;51970;53.484;49.488;2022-07-11T12:01:40;34.74;25.19
65369;HTU21D;51970;53.484;49.488;2022-07-11T12:04:08;34.82;25.68
65369;HTU21D;51970;53.484;49.488;2022-07-11T12:06:46;34.98;24.92
65369;HTU21D;51970;53.484;49.488;2022-07-11T12:09:18;34.91;24.16
65369;HTU21D;51970;53.484;49.488;2022-07-11T12:11:48;34.89;23.78
65369;HTU21D;51970;53.484;49.488;2022-07-11T12:14:15;34.73;24.24
65369;HTU21D;51970;53.484;49.488;2022-07-11T12:16:43;34.78;24.24
65369;HTU21D;51970;53.484;49.488;2022-07-11T12:21:46;34.55;24.13
65369;HTU21D;51970;53.484;49.488;2022-07-11T12:24:22;34.61;24.37
65369;HTU21D;51970;53.484;49.488;2022-07-11T12:26:52;34.60;24.59
65369;HTU21D;51970;53.484;49.488;2022-07-11T12:29:23;34.64;25.05
65369;HTU21D;51970;53.484;49.488;2022-07-11T12:32:00;34.83;25.59
65369;HTU21D;51970;53.484;49.488;2022-07-11T12:37:09;34.94;22.88
65369;HTU21D;51970;53.484;49.488;2022-07-11T12:39:38;34.70;23.59
65369;HTU21D;51970;53.484;49.488;2022-07-11T12:42:28;34.51;23.48
65369;HTU21D;51970;53.484;49.488;2022-07-11T12:44:59;34.26;24.24
65369;HTU21D;51970;53.484;49.488;2022-07-11T12:47:28;34.46;24.13
65369;HTU21D;51970;53.484;49.488;2022-07-11T12:49:56;34.65;23.91
65369;HTU21D;51970;53.484;49.488;2022-07-11T12:52:22;34.90;23.11
65369;HTU21D;51970;53.484;49.488;2022-07-11T12:54:49;34.90;23.15
65369;HTU21D;51970;53.484;49.488;2022-07-11T12:57:20;34.77;23.21
65369;HTU21D;51970;53.484;49.488;2022-07-11T12:59:47;34.60;23.17
65369;HTU21D;51970;53.484;49.488;2022-07-11T13:02:14;34.64;23.09
65369;HTU21D;51970;53.484;49.488;2022-07-11T13:04:57;34.71;23.34
65369;HTU21D;51970;53.484;49.488;2022-07-11T13:10:12;34.05;23.17
65369;HTU21D;51970;53.484;49.488;2022-07-11T13:12:42;33.94;23.60
65369;HTU21D;51970;53.484;49.488;2022-07-11T13:15:12;34.04;23.40
65369;HTU21D;51970;53.484;49.488;2022-07-11T13:17:47;34.06;23.22
65369;HTU21D;51970;53.484;49.488;2022-07-11T13:20:18;34.22;23.71
65369;HTU21D;51970;53.484;49.488;2022-07-11T13:22:47;34.35;23.99
65369;HTU21D;51970;53.484;49.488;2022-07-11T13:25:19;34.45;23.50
65369;HTU21D;51970;53.484;49.488;2022-07-11T13:27:46;34.52;24.47
65369;HTU21D;51970;53.484;49.488;2022-07-11T13:30:15;34.49;24.76
65369;HTU21D;51970;53.484;49.488;2022-07-11T13:32:46;34.50;24.69
65369;HTU21D;51970;53.484;49.488;2022-07-11T13:35:14;34.40;25.04
65369;HTU21D;51970;53.484;49.488;2022-07-11T13:37:42;34.39;25.58
65369;HTU21D;51970;53.484;49.488;2022-07-11T13:40:21;34.33;25.04
65369;HTU21D;51970;53.484;49.488;2022-07-11T13:42:48;34.05;25.72
65369;HTU21D;51970;53.484;49.488;2022-07-11T13:45:18;34.19;25.90
65369;HTU21D;51970;53.484;49.488;2022-07-11T13:47:59;34.11;25.79
65369;HTU21D;51970;53.484;49.488;2022-07-11T13:50:29;33.93;26.12
65369;HTU21D;51970;53.484;49.488;2022-07-11T13:52:55;33.85;26.12
65369;HTU21D;51970;53.484;49.488;2022-07-11T13:55:25;33.91;26.23
65369;HTU21D;51970;53.484;49.488;2022-07-11T13:57:57;33.90;26.47
65369;HTU21D;51970;53.484;49.488;2022-07-11T14:00:30;33.66;26.75
65369;HTU21D;51970;53.484;49.488;2022-07-11T14:03:00;33.40;27.48
65369;HTU21D;51970;53.484;49.488;2022-07-11T14:05:27;33.65;27.19
65369;HTU21D;51970;53.484;49.488;2022-07-11T14:08:32;34.29;26.00
65369;HTU21D;51970;53.484;49.488;2022-07-11T14:11:00;34.62;25.80
65369;HTU21D;51970;53.484;49.488;2022-07-11T14:13:29;34.83;25.58
65369;HTU21D;51970;53.484;49.488;2022-07-11T14:16:07;35.23;25.20
65369;HTU21D;51970;53.484;49.488;2022-07-11T14:18:36;35.51;24.66
65369;HTU21D;51970;53.484;49.488;2022-07-11T14:21:03;35.68;24.42
65369;HTU21D;51970;53.484;49.488;2022-07-11T14:23:30;36.02;24.10
65369;HTU21D;51970;53.484;49.488;2022-07-11T14:26:05;36.49;23.50
65369;HTU21D;51970;53.484;49.488;2022-07-11T14:28:32;36.62;23.37
65369;HTU21D;51970;53.484;49.488;2022-07-11T14:31:02;35.94;24.19
65369;HTU21D;51970;53.484;49.488;2022-07-11T14:33:28;36.16;24.36
65369;HTU21D;51970;53.484;49.488;2022-07-11T14:35:55;36.60;23.79
65369;HTU21D;51970;53.484;49.488;2022-07-11T14:38:21;36.03;24.29
65369;HTU21D;51970;53.484;49.488;2022-07-11T14:40:47;35.73;25.06
65369;HTU21D;51970;53.484;49.488;2022-07-11T14:43:13;36.06;24.75
65369;HTU21D;51970;53.484;49.488;2022-07-11T14:45:39;36.47;23.83
65369;HTU21D;51970;53.484;49.488;2022-07-11T14:48:06;36.71;23.69
65369;HTU21D;51970;53.484;49.488;2022-07-11T14:50:32;36.90;23.51
65369;HTU21D;51970;53.484;49.488;2022-07-11T14:53:01;36.80;23.63
65369;HTU21D;51970;53.484;49.488;2022-07-11T14:55:28;36.47;25.21
65369;HTU21D;51970;53.484;49.488;2022-07-11T14:57:54;36.62;25.29
65369;HTU21D;51970;53.484;49.488;2022-07-11T15:00:22;36.02;26.47
65369;HTU21D;51970;53.484;49.488;2022-07-11T15:02:49;35.07;27.48
65369;HTU21D;51970;53.484;49.488;2022-07-11T15:05:36;34.31;29.01
65369;HTU21D;51970;53.484;49.488;2022-07-11T15:08:03;34.39;28.69
65369;HTU21D;51970;53.484;49.488;2022-07-11T15:10:48;34.81;28.03
65369;HTU21D;51970;53.484;49.488;2022-07-11T15:13:36;34.89;28.26
65369;HTU21D;51970;53.484;49.488;2022-07-11T15:16:02;34.41;29.01
65369;HTU21D;51970;53.484;49.488;2022-07-11T15:18:29;33.77;30.03
65369;HTU21D;51970;53.484;49.488;2022-07-11T15:20:56;33.52;30.56
65369;HTU21D;51970;53.484;49.488;2022-07-11T15:23:22;33.20;31.19
65369;HTU21D;51970;53.484;49.488;2022-07-11T15:25:49;32.68;31.90
65369;HTU21D;51970;53.484;49.488;2022-07-11T15:28:15;32.33;32.52
65369;HTU21D;51970;53.484;49.488;2022-07-11T15:30:41;32.19;32.73
65369;HTU21D;51970;53.484;49.488;2022-07-11T15:33:07;32.05;33.37
65369;HTU21D;51970;53.484;49.488;2022-07-11T15:35:34;31.95;33.63
65369;HTU21D;51970;53.484;49.488;2022-07-11T15:38:00;31.85;33.82
65369;HTU21D;51970;53.484;49.488;2022-07-11T15:40:26;31.84;34.19
65369;HTU21D;51970;53.484;49.488;2022-07-11T15:42:54;31.73;34.62
65369;HTU21D;51970;53.484;49.488;2022-07-11T15:45:20;31.71;34.83